Time;durP1;ratioP1;P1;durP2;ratioP2;P2;SDS_P1;SDS_P2;PMS_P1;PMS_P2;Temp;Humidity;BMP_temperature;BMP_pressure;BME280_temperature;BME280_humidity;BME280_pressure;Samples;Min_cycle;Max_cycle;Signal;HPM_P1;HPM_P2
2022/03/01 00:02:05;;;;;;;9.00;5.80;;;3.70;99.90;;;;;;5107002;28;20926;-89
2022/03/01 00:04:31;;;;;;;8.52;7.03;;;3.70;99.90;;;;;;5125086;28;20196;-89
2022/03/01 00:06:57;;;;;;;11.97;7.20;;;3.70;99.90;;;;;;5121583;28;20196;-89
2022/03/01 00:09:23;;;;;;;18.10;10.13;;;3.70;99.90;;;;;;5121274;28;20195;-89
2022/03/01 00:11:49;;;;;;;41.47;17.37;;;3.70;99.90;;;;;;5130387;28;20186;-89
2022/03/01 00:14:14;;;;;;;48.97;20.47;;;3.70;99.90;;;;;;5126197;28;21479;-89
2022/03/01 00:16:41;;;;;;;38.95;17.65;;;3.60;99.90;;;;;;5117663;28;20176;-88
2022/03/01 00:19:06;;;;;;;50.13;18.80;;;3.60;99.90;;;;;;5119551;28;20180;-89
2022/03/01 00:21:32;;;;;;;54.00;20.57;;;3.60;99.90;;;;;;5122395;28;20262;-89
2022/03/01 00:23:58;;;;;;;59.00;22.07;;;3.50;99.90;;;;;;5116088;28;20904;-88
2022/03/01 00:26:24;;;;;;;54.17;21.20;;;3.50;99.90;;;;;;5116391;28;20438;-90
2022/03/01 00:28:50;;;;;;;37.93;18.00;;;3.50;99.90;;;;;;5117442;28;20375;-89
2022/03/01 00:31:16;;;;;;;53.65;19.92;;;3.40;99.90;;;;;;5116167;28;20419;-89
2022/03/01 00:33:42;;;;;;;48.60;17.60;;;3.40;99.90;;;;;;5117076;28;20168;-89
2022/03/01 00:36:08;;;;;;;56.03;21.50;;;3.40;99.90;;;;;;5116155;28;20423;-89
2022/03/01 00:38:34;;;;;;;44.30;16.83;;;3.40;99.90;;;;;;5115651;28;20270;-89
2022/03/01 00:41:00;;;;;;;53.97;21.37;;;3.30;99.90;;;;;;5117529;28;20691;-89
2022/03/01 00:43:26;;;;;;;56.40;21.83;;;3.30;99.90;;;;;;5115619;28;20802;-88
2022/03/01 00:45:53;;;;;;;43.23;18.20;;;3.30;99.90;;;;;;5115196;28;20482;-88
2022/03/01 00:48:20;;;;;;;41.08;17.95;;;3.20;99.90;;;;;;5115707;28;20180;-89
2022/03/01 00:50:46;;;;;;;30.27;15.38;;;3.20;99.90;;;;;;5115666;28;20690;-88
2022/03/01 00:53:12;;;;;;;50.00;21.23;;;3.20;99.90;;;;;;5115542;28;20171;-87
2022/03/01 00:55:38;;;;;;;32.73;13.20;;;3.20;99.90;;;;;;5115526;28;20444;-89
2022/03/01 00:58:04;;;;;;;51.28;19.08;;;3.10;99.90;;;;;;5115453;28;20985;-88
2022/03/01 01:00:31;;;;;;;44.00;17.00;;;3.10;99.90;;;;;;5115366;28;20212;-88
2022/03/01 01:02:57;;;;;;;35.70;14.85;;;3.10;99.90;;;;;;5102643;28;20991;-89
2022/03/01 01:05:23;;;;;;;40.03;17.73;;;3.10;99.90;;;;;;5095025;28;20239;-88
2022/03/01 01:07:50;;;;;;;30.98;13.85;;;3.10;99.90;;;;;;5094936;28;20408;-88
2022/03/01 01:10:17;;;;;;;38.10;16.50;;;3.10;99.90;;;;;;5094771;28;20232;-89
2022/03/01 01:12:43;;;;;;;35.45;13.85;;;3.10;99.90;;;;;;5098661;28;20165;-88
2022/03/01 01:15:10;;;;;;;15.27;9.63;;;3.10;99.90;;;;;;5095743;28;20210;-89
2022/03/01 01:17:36;;;;;;;34.92;14.60;;;3.00;99.90;;;;;;5103487;28;20526;-88
2022/03/01 01:20:04;;;;;;;19.53;9.40;;;3.00;99.90;;;;;;5098474;28;20235;-90
2022/03/01 01:22:39;;;;;;;21.23;9.13;;;3.00;99.90;;;;;;5096465;28;20713;-88
2022/03/01 01:25:06;;;;;;;23.80;11.30;;;3.00;99.90;;;;;;5095945;28;20204;-88
2022/03/01 01:27:32;;;;;;;24.20;10.85;;;3.00;99.90;;;;;;5094491;28;20668;-89
2022/03/01 01:29:58;;;;;;;34.90;15.32;;;3.00;99.90;;;;;;5094987;28;20284;-88
2022/03/01 01:32:24;;;;;;;32.47;12.90;;;3.00;99.90;;;;;;5107602;28;20204;-88
2022/03/01 01:34:50;;;;;;;32.93;14.10;;;3.00;99.90;;;;;;5133722;28;20221;-88
2022/03/01 01:37:16;;;;;;;34.40;14.77;;;2.90;99.90;;;;;;5133084;28;20164;-89
2022/03/01 01:39:41;;;;;;;21.27;12.70;;;2.90;99.90;;;;;;5130669;28;20797;-88
2022/03/01 01:42:07;;;;;;;18.50;9.87;;;2.90;99.90;;;;;;5114538;28;20171;-88
2022/03/01 01:44:33;;;;;;;13.43;8.18;;;2.80;99.90;;;;;;5114047;28;20235;-89
2022/03/01 01:46:59;;;;;;;17.47;9.80;;;2.80;99.90;;;;;;5114500;28;20272;-88
2022/03/01 01:49:25;;;;;;;11.20;6.47;;;2.80;99.90;;;;;;5114648;28;21349;-89
2022/03/01 01:51:51;;;;;;;15.88;7.80;;;2.80;99.90;;;;;;5111394;28;20405;-88
2022/03/01 01:54:17;;;;;;;12.30;7.40;;;2.80;99.90;;;;;;5094160;28;20700;-88
2022/03/01 01:56:43;;;;;;;9.13;6.33;;;2.80;99.90;;;;;;5097529;28;20208;-88
2022/03/01 01:59:09;;;;;;;9.47;6.37;;;2.70;99.90;;;;;;5095329;28;20423;-88
2022/03/01 02:01:34;;;;;;;9.80;7.73;;;2.70;99.90;;;;;;5100602;28;20255;-89
2022/03/01 02:04:00;;;;;;;9.30;6.33;;;2.70;99.90;;;;;;5099673;28;20172;-88
2022/03/01 02:06:27;;;;;;;11.83;6.10;;;2.70;99.90;;;;;;5107768;28;20196;-88
2022/03/01 02:08:53;;;;;;;15.60;9.50;;;2.60;99.90;;;;;;5095407;28;20392;-89
2022/03/01 02:11:19;;;;;;;11.90;7.07;;;2.60;99.90;;;;;;5093755;28;20271;-89
2022/03/01 02:13:44;;;;;;;8.07;5.50;;;2.60;99.90;;;;;;5093489;28;20951;-88
2022/03/01 02:16:10;;;;;;;8.57;5.90;;;2.60;99.90;;;;;;5093572;28;20419;-88
2022/03/01 02:18:37;;;;;;;7.72;6.53;;;2.60;99.90;;;;;;5112394;28;20183;-89
2022/03/01 02:21:03;;;;;;;9.85;6.53;;;2.50;99.90;;;;;;5115668;28;20215;-88
2022/03/01 02:23:29;;;;;;;8.23;5.77;;;2.50;99.90;;;;;;5114171;28;20172;-88
2022/03/01 02:25:55;;;;;;;6.78;5.75;;;2.50;99.90;;;;;;5113742;28;20511;-89
2022/03/01 02:28:20;;;;;;;9.17;6.47;;;2.50;99.90;;;;;;5113668;28;20176;-88
2022/03/01 02:30:46;;;;;;;6.83;5.70;;;2.50;99.90;;;;;;5115010;28;20211;-88
2022/03/01 02:33:15;;;;;;;7.90;5.90;;;2.40;99.90;;;;;;5114847;28;20208;-89
2022/03/01 02:35:41;;;;;;;7.25;5.35;;;2.40;99.90;;;;;;5114024;28;20458;-88
2022/03/01 02:38:06;;;;;;;8.50;6.30;;;2.40;99.90;;;;;;5113800;28;20258;-89
2022/03/01 02:40:32;;;;;;;8.70;6.30;;;2.30;99.90;;;;;;5114882;28;20752;-89
2022/03/01 02:42:58;;;;;;;8.53;5.97;;;2.30;99.90;;;;;;5113708;28;20207;-88
2022/03/01 02:45:24;;;;;;;6.10;5.30;;;2.30;99.90;;;;;;5114120;28;20462;-88
2022/03/01 02:47:50;;;;;;;8.32;5.95;;;2.30;99.90;;;;;;5118611;28;20786;-89
2022/03/01 02:50:17;;;;;;;9.55;6.50;;;2.30;99.90;;;;;;5133685;28;20203;-88
2022/03/01 02:52:43;;;;;;;9.07;7.07;;;2.20;99.90;;;;;;5122626;28;20176;-88
2022/03/01 02:55:10;;;;;;;10.77;6.80;;;2.20;99.90;;;;;;5114925;28;20196;-87
2022/03/01 02:57:36;;;;;;;10.75;6.60;;;2.20;99.90;;;;;;5113666;28;20416;-89
2022/03/01 03:00:04;;;;;;;7.97;6.60;;;2.20;99.90;;;;;;5115687;28;20199;-89
2022/03/01 03:02:30;;;;;;;8.07;6.90;;;2.10;99.90;;;;;;5115549;28;20382;-88
2022/03/01 03:04:56;;;;;;;7.83;6.93;;;2.10;99.90;;;;;;5114372;28;20537;-88
2022/03/01 03:07:22;;;;;;;8.40;6.27;;;2.10;99.90;;;;;;5115525;28;20187;-89
2022/03/01 03:09:48;;;;;;;9.20;6.63;;;2.10;99.90;;;;;;5119961;28;20436;-88
2022/03/01 03:12:14;;;;;;;10.70;6.40;;;2.00;99.90;;;;;;5107454;28;20406;-88
2022/03/01 03:14:39;;;;;;;9.98;6.80;;;2.00;99.90;;;;;;5094707;28;20294;-89
2022/03/01 03:17:05;;;;;;;9.37;6.20;;;1.90;99.90;;;;;;5099218;28;20172;-88
2022/03/01 03:19:32;;;;;;;7.67;6.40;;;1.90;99.90;;;;;;5113535;28;20505;-88
2022/03/01 03:21:58;;;;;;;8.65;6.75;;;1.90;99.90;;;;;;5113388;28;20591;-90
2022/03/01 03:24:23;;;;;;;12.25;6.57;;;1.80;99.90;;;;;;5113277;28;20188;-88
2022/03/01 03:26:49;;;;;;;11.60;8.00;;;1.80;99.90;;;;;;5115844;28;20212;-89
2022/03/01 03:29:15;;;;;;;14.07;6.40;;;1.80;99.90;;;;;;5121545;28;20512;-89
2022/03/01 03:31:42;;;;;;;9.87;7.17;;;1.80;99.90;;;;;;5124918;28;20416;-87
2022/03/01 03:34:09;;;;;;;8.07;7.15;;;1.70;99.90;;;;;;5131170;28;20388;-89
2022/03/01 03:36:36;;;;;;;9.82;7.18;;;1.70;99.90;;;;;;5113659;28;20287;-88
2022/03/01 03:39:04;;;;;;;8.40;7.32;;;1.70;99.90;;;;;;5113451;28;20608;-88
2022/03/01 03:41:30;;;;;;;9.00;7.30;;;1.70;99.90;;;;;;5113245;28;20203;-87
2022/03/01 03:43:56;;;;;;;9.67;7.33;;;1.70;99.90;;;;;;5114678;28;20172;-87
2022/03/01 03:46:22;;;;;;;12.38;7.15;;;1.70;99.90;;;;;;5042641;28;20486;-89
2022/03/01 03:48:49;;;;;;;8.85;7.00;;;1.70;99.90;;;;;;5103225;28;20190;-89
2022/03/01 03:51:15;;;;;;;12.25;6.55;;;1.60;99.90;;;;;;5102965;28;20211;-89
2022/03/01 03:53:41;;;;;;;12.00;7.73;;;1.60;99.90;;;;;;5102895;28;20201;-89
2022/03/01 03:56:06;;;;;;;10.27;6.68;;;1.60;99.90;;;;;;5102571;28;20451;-90
2022/03/01 03:58:32;;;;;;;11.30;8.30;;;1.60;99.90;;;;;;5085259;28;20640;-89
2022/03/01 04:00:58;;;;;;;8.95;7.05;;;1.60;99.90;;;;;;5082392;28;20213;-89
2022/03/01 04:03:24;;;;;;;11.70;7.90;;;1.50;99.90;;;;;;5082382;28;20175;-87
2022/03/01 04:05:50;;;;;;;9.57;7.47;;;1.50;99.90;;;;;;5082443;28;20546;-89
2022/03/01 04:08:17;;;;;;;10.38;8.43;;;1.50;99.90;;;;;;5082130;28;20410;-88
2022/03/01 04:10:44;;;;;;;10.25;7.65;;;1.50;99.90;;;;;;5082926;28;20211;-89
2022/03/01 04:13:10;;;;;;;11.95;7.53;;;1.40;99.90;;;;;;5096214;28;20186;-88
2022/03/01 04:15:37;;;;;;;10.70;7.40;;;1.40;99.90;;;;;;5102565;28;20249;-90
2022/03/01 04:18:03;;;;;;;9.13;8.13;;;1.40;99.90;;;;;;5033617;28;20171;-88
2022/03/01 04:20:29;;;;;;;9.93;6.95;;;1.30;99.90;;;;;;5103069;28;20584;-88
2022/03/01 04:22:55;;;;;;;9.90;7.30;;;1.30;99.90;;;;;;5114783;28;20178;-90
2022/03/01 04:25:21;;;;;;;8.90;7.20;;;1.30;99.90;;;;;;5049931;28;20788;-89
2022/03/01 04:27:46;;;;;;;9.90;7.25;;;1.40;99.90;;;;;;5052300;28;20187;-88
2022/03/01 04:30:13;;;;;;;9.90;7.50;;;1.50;99.90;;;;;;5103590;28;20267;-88
2022/03/01 04:32:40;;;;;;;8.07;6.65;;;1.60;99.90;;;;;;5102047;28;20174;-88
2022/03/01 04:35:08;;;;;;;10.75;7.95;;;1.60;99.90;;;;;;5102230;28;20240;-88
2022/03/01 04:37:37;;;;;;;11.02;7.43;;;1.70;99.90;;;;;;5101628;28;20175;-90
2022/03/01 04:40:08;;;;;;;10.27;7.28;;;1.80;99.90;;;;;;5102536;28;20210;-88
2022/03/01 04:42:34;;;;;;;12.10;7.43;;;1.90;99.90;;;;;;5102315;28;20670;-90
2022/03/01 04:45:01;;;;;;;10.90;7.15;;;2.00;99.90;;;;;;5033080;28;20238;-88
2022/03/01 04:47:27;;;;;;;12.65;8.85;;;2.00;99.90;;;;;;5101705;28;20273;-88
2022/03/01 04:49:53;;;;;;;11.70;7.38;;;2.10;99.90;;;;;;5033516;28;20256;-90
2022/03/01 04:52:19;;;;;;;9.33;6.87;;;2.10;99.90;;;;;;5102034;28;20175;-88
2022/03/01 04:54:45;;;;;;;10.03;7.40;;;2.20;99.90;;;;;;5110447;28;20438;-89
2022/03/01 04:57:11;;;;;;;7.43;6.30;;;2.20;99.90;;;;;;5109130;27;20452;-89
2022/03/01 04:59:37;;;;;;;8.75;7.00;;;2.30;99.90;;;;;;5033161;28;20277;-88
2022/03/01 05:02:03;;;;;;;12.38;7.10;;;2.30;99.90;;;;;;5028224;28;20229;-90
2022/03/01 05:04:29;;;;;;;9.25;6.70;;;2.50;99.90;;;;;;5081410;28;20660;-88
2022/03/01 05:06:55;;;;;;;9.47;7.30;;;2.90;99.90;;;;;;5086144;28;20208;-90
2022/03/01 05:09:21;;;;;;;15.27;7.50;;;3.30;99.90;;;;;;5102467;28;20403;-88
2022/03/01 05:11:51;;;;;;;10.17;6.13;;;3.50;99.90;;;;;;5032067;28;20426;-89
2022/03/01 05:14:18;;;;;;;10.00;7.22;;;3.80;99.90;;;;;;5081409;28;20449;-88
2022/03/01 05:16:45;;;;;;;11.70;7.15;;;4.00;99.90;;;;;;5083174;28;20207;-87
2022/03/01 05:19:12;;;;;;;12.45;8.00;;;4.10;99.90;;;;;;5101089;28;20182;-90
2022/03/01 05:21:38;;;;;;;10.15;8.05;;;4.20;99.90;;;;;;5032729;28;20171;-88
2022/03/01 05:24:05;;;;;;;9.18;7.13;;;4.10;99.90;;;;;;5035298;28;20702;-90
2022/03/01 05:26:31;;;;;;;10.85;7.85;;;3.90;99.90;;;;;;5117687;27;20234;-89
2022/03/01 05:28:57;;;;;;;11.73;8.15;;;3.70;99.90;;;;;;5114020;27;20182;-90
2022/03/01 05:31:23;;;;;;;11.27;7.00;;;3.60;99.90;;;;;;5101407;28;20683;-90
2022/03/01 05:33:50;;;;;;;10.75;7.22;;;3.60;99.90;;;;;;5032921;28;20179;-90
2022/03/01 05:36:16;;;;;;;14.18;7.35;;;3.50;99.90;;;;;;5114925;27;20796;-88
2022/03/01 05:38:43;;;;;;;9.85;7.13;;;3.40;99.90;;;;;;5106918;28;20186;-87
2022/03/01 05:41:09;;;;;;;13.77;7.25;;;3.40;99.90;;;;;;5122572;28;20206;-89
2022/03/01 05:43:36;;;;;;;16.35;10.00;;;3.40;99.90;;;;;;5069687;27;20546;-90
2022/03/01 05:46:03;;;;;;;12.23;8.80;;;3.40;99.90;;;;;;5108344;27;20337;-87
2022/03/01 05:48:29;;;;;;;10.48;7.22;;;3.30;99.90;;;;;;5117069;27;20179;-88
2022/03/01 05:50:55;;;;;;;10.33;6.30;;;3.10;99.90;;;;;;5096211;28;20268;-90
2022/03/01 05:53:21;;;;;;;13.90;7.70;;;3.00;99.90;;;;;;5100452;28;20387;-89
2022/03/01 05:55:49;;;;;;;9.30;7.00;;;2.70;99.90;;;;;;5065755;27;20577;-90
2022/03/01 05:58:14;;;;;;;10.35;7.60;;;2.60;99.90;;;;;;5039576;27;20181;-89
2022/03/01 06:00:40;;;;;;;9.73;7.20;;;2.40;99.90;;;;;;5076351;27;20211;-90
2022/03/01 06:03:06;;;;;;;9.30;6.77;;;2.20;99.90;;;;;;5042052;27;20447;-88
2022/03/01 06:05:32;;;;;;;12.37;8.67;;;2.10;99.90;;;;;;5112586;28;20488;-90
2022/03/01 06:07:58;;;;;;;11.52;7.45;;;1.90;99.90;;;;;;5033986;27;20391;-90
2022/03/01 06:10:28;;;;;;;8.77;6.70;;;1.80;99.90;;;;;;5110638;27;20615;-89
2022/03/01 06:12:54;;;;;;;10.15;7.35;;;1.70;99.90;;;;;;5116930;27;20171;-90
2022/03/01 06:15:20;;;;;;;7.88;6.07;;;1.60;99.90;;;;;;5099261;28;20210;-89
2022/03/01 06:17:46;;;;;;;10.07;7.55;;;1.50;99.90;;;;;;5059471;27;20184;-87
2022/03/01 06:20:13;;;;;;;11.10;6.60;;;1.50;99.90;;;;;;5102246;28;21188;-87
2022/03/01 06:22:40;;;;;;;12.55;7.95;;;1.50;99.90;;;;;;5097876;28;20452;-86
2022/03/01 06:25:08;;;;;;;9.48;6.80;;;1.40;99.90;;;;;;5108371;27;20214;-90
2022/03/01 06:27:38;;;;;;;10.23;6.43;;;1.40;99.90;;;;;;5047855;28;20246;-85
2022/03/01 06:30:06;;;;;;;9.80;4.82;;;1.50;99.90;;;;;;5120484;28;20191;-90
2022/03/01 06:32:32;;;;;;;9.00;6.55;;;1.50;99.90;;;;;;5104864;28;20228;-90
2022/03/01 06:34:58;;;;;;;9.70;6.65;;;1.50;99.90;;;;;;5098228;28;20222;-87
2022/03/01 06:37:24;;;;;;;11.50;6.27;;;1.50;99.90;;;;;;5104675;28;20592;-90
2022/03/01 06:39:50;;;;;;;9.18;5.60;;;1.50;99.90;;;;;;5099274;28;20456;-88
2022/03/01 06:42:17;;;;;;;9.20;6.72;;;1.60;99.90;;;;;;5097321;28;20178;-90
2022/03/01 06:44:43;;;;;;;8.73;5.43;;;1.70;99.90;;;;;;5111090;28;20266;-89
2022/03/01 06:47:09;;;;;;;7.78;5.85;;;1.80;99.90;;;;;;5098166;28;20248;-90
2022/03/01 06:49:36;;;;;;;9.23;6.70;;;1.80;99.90;;;;;;5056149;28;20202;-87
2022/03/01 06:52:02;;;;;;;14.27;7.60;;;1.90;99.90;;;;;;5035322;28;20910;-88
2022/03/01 06:54:28;;;;;;;11.88;7.20;;;2.00;99.90;;;;;;5114405;28;20207;-87
2022/03/01 06:56:54;;;;;;;12.20;8.80;;;2.10;99.90;;;;;;5091485;28;20179;-90
2022/03/01 06:59:20;;;;;;;13.40;8.40;;;2.20;99.90;;;;;;5045250;28;20191;-90
2022/03/01 07:01:46;;;;;;;12.32;8.88;;;2.30;99.90;;;;;;5124108;28;20463;-88
2022/03/01 07:04:12;;;;;;;8.83;5.90;;;2.40;99.90;;;;;;5098715;28;20711;-89
2022/03/01 07:06:38;;;;;;;9.63;7.90;;;2.40;99.90;;;;;;5104739;28;20465;-87
2022/03/01 07:09:04;;;;;;;10.70;9.47;;;2.50;99.90;;;;;;5121111;28;20179;-90
2022/03/01 07:11:29;;;;;;;11.97;8.17;;;2.60;99.90;;;;;;5100960;28;20595;-90
2022/03/01 07:13:55;;;;;;;22.90;13.30;;;2.70;99.90;;;;;;5098542;28;20510;-87
2022/03/01 07:16:21;;;;;;;11.57;8.10;;;2.70;99.90;;;;;;5030289;28;20203;-91
2022/03/01 07:18:47;;;;;;;9.33;6.80;;;2.90;99.90;;;;;;5098138;28;20416;-91
2022/03/01 07:21:13;;;;;;;6.63;6.00;;;2.90;99.90;;;;;;5120244;27;20474;-91
2022/03/01 07:23:40;;;;;;;10.07;7.10;;;3.00;99.90;;;;;;5103752;28;20394;-89
2022/03/01 07:26:07;;;;;;;8.52;6.60;;;3.10;99.90;;;;;;5106720;27;20487;-91
2022/03/01 07:28:34;;;;;;;8.77;7.10;;;3.20;99.90;;;;;;5102682;28;20251;-88
2022/03/01 07:30:59;;;;;;;11.07;8.05;;;3.30;99.90;;;;;;5110763;27;20572;-89
2022/03/01 07:33:25;;;;;;;11.97;8.77;;;3.40;99.90;;;;;;5114135;27;20182;-86
2022/03/01 07:35:51;;;;;;;11.90;8.03;;;3.50;99.90;;;;;;5104146;27;20701;-87
2022/03/01 07:38:17;;;;;;;8.60;6.60;;;3.60;99.90;;;;;;5099179;28;20804;-89
2022/03/01 07:40:43;;;;;;;9.67;6.40;;;3.70;99.90;;;;;;5102129;28;20213;-86
2022/03/01 07:43:09;;;;;;;11.60;6.28;;;3.80;99.90;;;;;;5101895;28;20420;-89
2022/03/01 07:45:35;;;;;;;9.30;6.30;;;3.90;99.90;;;;;;5119715;27;20231;-90
2022/03/01 07:48:02;;;;;;;10.18;6.07;;;4.00;99.90;;;;;;5098846;28;21209;-88
2022/03/01 07:50:29;;;;;;;10.30;9.23;;;4.10;99.90;;;;;;5041709;28;20210;-88
2022/03/01 07:52:55;;;;;;;8.50;5.50;;;4.20;99.90;;;;;;5090776;28;20261;-88
2022/03/01 07:55:22;;;;;;;9.23;6.32;;;4.40;99.90;;;;;;5086332;28;20207;-85
2022/03/01 07:57:49;;;;;;;12.48;6.28;;;4.40;99.90;;;;;;5023666;27;20174;-85
2022/03/01 08:00:15;;;;;;;7.38;6.50;;;4.60;99.90;;;;;;5102720;27;20739;-88
2022/03/01 08:02:42;;;;;;;10.35;5.40;;;4.70;99.90;;;;;;5113103;27;20179;-87
2022/03/01 08:05:09;;;;;;;7.32;5.93;;;4.90;99.90;;;;;;5090831;28;20211;-85
2022/03/01 08:07:38;;;;;;;9.23;6.60;;;5.10;99.90;;;;;;5032926;27;20177;-89
2022/03/01 08:10:06;;;;;;;7.63;6.82;;;5.40;99.90;;;;;;5028503;28;20203;-89
2022/03/01 08:12:32;;;;;;;8.05;5.78;;;5.70;99.90;;;;;;5104298;27;20238;-89
2022/03/01 08:14:57;;;;;;;5.10;3.80;;;6.10;99.90;;;;;;5055862;27;20198;-89
2022/03/01 08:17:23;;;;;;;9.17;5.13;;;6.60;99.90;;;;;;5116846;27;20580;-89
2022/03/01 08:19:49;;;;;;;5.93;5.33;;;7.10;99.90;;;;;;5112562;27;20199;-89
2022/03/01 08:22:15;;;;;;;7.10;4.72;;;7.70;99.90;;;;;;5034684;28;20183;-89
2022/03/01 08:24:41;;;;;;;6.97;5.60;;;8.40;99.90;;;;;;5099109;28;20286;-89
2022/03/01 08:27:08;;;;;;;5.88;4.63;;;9.20;99.90;;;;;;5099231;28;20259;-88
2022/03/01 08:29:35;;;;;;;8.02;5.25;;;9.90;99.90;;;;;;5100703;28;20668;-89
2022/03/01 08:32:01;;;;;;;7.95;4.88;;;10.60;99.90;;;;;;5101260;28;20175;-85
2022/03/01 08:34:26;;;;;;;7.25;4.90;;;11.30;98.20;;;;;;5097132;28;20259;-89
2022/03/01 08:36:53;;;;;;;7.03;5.53;;;11.80;96.30;;;;;;5106372;27;20319;-86
2022/03/01 08:39:19;;;;;;;7.07;5.38;;;12.30;94.90;;;;;;5098850;28;20414;-87
2022/03/01 08:41:44;;;;;;;6.80;5.43;;;12.80;93.90;;;;;;5105418;27;20179;-86
2022/03/01 08:44:11;;;;;;;6.40;4.07;;;13.40;93.00;;;;;;5100186;28;20186;-86
2022/03/01 08:46:37;;;;;;;4.45;4.03;;;13.80;91.10;;;;;;5095349;28;20479;-87
2022/03/01 08:49:03;;;;;;;9.27;5.50;;;14.10;90.20;;;;;;5028204;28;20698;-86
2022/03/01 08:51:30;;;;;;;5.20;4.35;;;14.30;88.50;;;;;;5080165;28;20253;-88
2022/03/01 08:53:56;;;;;;;7.05;5.63;;;14.50;85.90;;;;;;5009667;28;20172;-89
2022/03/01 08:56:22;;;;;;;8.43;4.73;;;14.80;84.80;;;;;;5091693;28;20198;-86
2022/03/01 08:58:48;;;;;;;6.00;4.50;;;15.00;82.60;;;;;;5033263;27;20948;-86
2022/03/01 09:01:15;;;;;;;4.95;4.35;;;15.20;82.00;;;;;;5107846;28;20683;-86
2022/03/01 09:03:41;;;;;;;4.47;4.07;;;15.50;81.20;;;;;;5086680;28;20273;-86
2022/03/01 09:06:08;;;;;;;4.93;3.60;;;15.70;80.10;;;;;;5022082;27;20483;-89
2022/03/01 09:08:35;;;;;;;8.13;5.00;;;16.00;78.60;;;;;;5098254;28;20431;-90
2022/03/01 09:11:02;;;;;;;6.20;4.57;;;16.10;78.10;;;;;;5096354;28;20310;-89
2022/03/01 09:13:28;;;;;;;4.83;4.17;;;16.30;77.50;;;;;;5025007;28;20409;-86
2022/03/01 09:15:54;;;;;;;7.27;4.30;;;16.40;76.20;;;;;;5031903;27;20531;-87
2022/03/01 09:18:21;;;;;;;5.03;4.00;;;16.60;76.20;;;;;;5092077;27;20420;-87
2022/03/01 09:20:50;;;;;;;4.37;3.83;;;16.70;76.60;;;;;;5090119;28;20456;-87
2022/03/01 09:23:17;;;;;;;5.97;4.30;;;16.90;73.70;;;;;;5101133;28;20462;-87
2022/03/01 09:25:43;;;;;;;4.07;3.60;;;17.00;74.60;;;;;;5036381;28;20471;-87
2022/03/01 09:28:09;;;;;;;5.57;4.50;;;17.10;74.60;;;;;;5087615;28;20176;-87
2022/03/01 09:30:36;;;;;;;4.70;3.70;;;17.10;74.20;;;;;;5025241;28;20230;-86
2022/03/01 09:33:02;;;;;;;6.53;3.30;;;17.00;73.60;;;;;;5096893;28;20997;-90
2022/03/01 09:35:28;;;;;;;6.87;4.17;;;16.90;74.70;;;;;;5103018;28;20542;-89
2022/03/01 09:37:54;;;;;;;6.23;4.43;;;16.60;73.60;;;;;;5098159;28;20535;-89
2022/03/01 09:40:19;;;;;;;6.03;3.90;;;16.30;72.90;;;;;;5114531;27;21035;-87
2022/03/01 09:42:46;;;;;;;4.80;4.40;;;15.90;72.20;;;;;;5020518;28;20189;-86
2022/03/01 09:45:13;;;;;;;5.73;4.37;;;15.50;73.50;;;;;;5098638;28;20570;-90
2022/03/01 09:47:40;;;;;;;5.30;4.33;;;15.20;74.20;;;;;;5026213;27;20422;-86
2022/03/01 09:50:07;;;;;;;5.15;4.65;;;14.90;73.80;;;;;;5104153;28;20466;-88
2022/03/01 09:52:33;;;;;;;5.70;4.17;;;14.70;74.50;;;;;;5047340;27;20228;-88
2022/03/01 09:54:59;;;;;;;4.87;4.23;;;14.70;74.90;;;;;;5042253;27;20471;-85
2022/03/01 09:57:25;;;;;;;6.50;4.40;;;14.70;74.30;;;;;;5104118;28;20406;-88
2022/03/01 09:59:51;;;;;;;4.33;3.50;;;14.70;74.20;;;;;;5092860;28;20817;-88
2022/03/01 10:02:17;;;;;;;4.00;3.20;;;14.70;74.60;;;;;;5102452;28;20424;-85
2022/03/01 10:04:54;;;;;;;5.00;4.10;;;14.80;73.30;;;;;;5021567;28;20549;-89
2022/03/01 10:07:24;;;;;;;6.32;4.35;;;14.80;74.30;;;;;;5086537;28;20294;-88
2022/03/01 10:09:51;;;;;;;6.40;4.20;;;14.80;73.30;;;;;;5100766;28;20202;-85
2022/03/01 10:12:28;;;;;;;8.10;3.65;;;14.90;72.30;;;;;;5087577;28;20222;-88
2022/03/01 10:15:04;;;;;;;4.22;3.47;;;15.00;72.80;;;;;;5087537;28;20288;-85
2022/03/01 10:17:40;;;;;;;5.40;4.00;;;15.00;71.60;;;;;;5020272;28;20651;-88
2022/03/01 10:20:10;;;;;;;3.47;2.92;;;14.80;71.10;;;;;;5119522;27;20202;-88
2022/03/01 10:22:47;;;;;;;4.85;4.25;;;14.40;71.40;;;;;;5098447;28;20186;-89
2022/03/01 10:25:15;;;;;;;4.57;3.92;;;14.00;72.50;;;;;;5099080;28;20247;-86
2022/03/01 10:27:43;;;;;;;5.40;4.47;;;13.70;73.60;;;;;;5092891;28;20218;-86
2022/03/01 10:30:10;;;;;;;5.85;4.28;;;13.40;74.80;;;;;;5107339;27;20604;-89
2022/03/01 10:32:36;;;;;;;6.00;4.22;;;13.20;74.80;;;;;;5098797;28;20674;-85
2022/03/01 10:35:07;;;;;;;4.90;4.27;;;13.00;75.90;;;;;;5106700;27;20286;-85
2022/03/01 10:37:37;;;;;;;5.90;4.65;;;12.80;75.80;;;;;;5093260;28;20509;-86
2022/03/01 10:40:19;;;;;;;5.00;4.22;;;12.70;75.20;;;;;;5094072;28;20601;-86
2022/03/01 10:42:57;;;;;;;4.13;3.28;;;12.60;76.90;;;;;;5093551;28;20622;-85
2022/03/01 10:45:39;;;;;;;4.53;3.28;;;12.60;75.50;;;;;;5094434;28;20230;-86
2022/03/01 10:48:07;;;;;;;4.93;4.43;;;12.50;78.50;;;;;;5090172;28;20187;-86
2022/03/01 10:50:34;;;;;;;4.68;3.05;;;12.60;80.50;;;;;;5108837;28;20259;-89
2022/03/01 10:53:00;;;;;;;5.70;2.90;;;12.50;75.80;;;;;;5095438;28;20722;-88
2022/03/01 10:55:28;;;;;;;4.80;3.25;;;12.40;75.10;;;;;;5098333;28;20537;-86
2022/03/01 10:58:06;;;;;;;6.00;3.58;;;12.30;75.10;;;;;;5097944;28;20190;-86
2022/03/01 11:00:36;;;;;;;6.97;3.88;;;12.10;74.70;;;;;;5111888;27;20209;-86
2022/03/01 11:03:06;;;;;;;4.85;4.05;;;12.00;72.80;;;;;;5101786;28;20178;-86
2022/03/01 11:05:33;;;;;;;7.18;3.90;;;11.90;74.70;;;;;;5104137;28;21018;-87
2022/03/01 11:08:09;;;;;;;5.15;3.85;;;11.80;75.10;;;;;;5031387;27;20188;-86
2022/03/01 11:10:38;;;;;;;5.25;4.43;;;11.80;75.20;;;;;;5107575;28;20204;-89
2022/03/01 11:13:05;;;;;;;4.07;3.50;;;11.80;74.30;;;;;;5027500;28;20643;-87
2022/03/01 11:15:49;;;;;;;5.50;4.32;;;11.80;74.00;;;;;;5091119;28;20203;-86
2022/03/01 11:18:40;;;;;;;4.43;3.50;;;11.70;74.80;;;;;;5093278;28;20221;-86
2022/03/01 11:21:08;;;;;;;4.30;3.90;;;11.60;75.30;;;;;;5104704;28;20205;-87
2022/03/01 11:23:34;;;;;;;4.20;3.80;;;11.50;75.30;;;;;;5027924;28;20220;-86
2022/03/01 11:26:13;;;;;;;5.50;3.90;;;11.50;76.30;;;;;;5092579;28;20214;-90
2022/03/01 11:28:40;;;;;;;4.30;3.78;;;11.50;75.00;;;;;;5025763;28;20420;-89
2022/03/01 11:31:19;;;;;;;5.60;4.03;;;11.50;75.30;;;;;;5111064;28;20194;-89
2022/03/01 11:33:58;;;;;;;4.43;3.40;;;11.60;75.80;;;;;;5039948;27;20194;-86
2022/03/01 11:36:27;;;;;;;4.90;4.05;;;11.60;74.60;;;;;;5106995;28;20296;-87
2022/03/01 11:38:53;;;;;;;3.10;2.78;;;11.70;73.80;;;;;;5038221;28;20274;-90
2022/03/01 11:41:20;;;;;;;6.27;4.10;;;11.70;74.40;;;;;;5091971;28;20755;-87
2022/03/01 11:44:00;;;;;;;6.82;4.00;;;11.80;74.50;;;;;;5105775;27;20427;-86
2022/03/01 11:46:26;;;;;;;5.15;4.30;;;11.80;74.00;;;;;;5027142;28;20245;-90
2022/03/01 11:48:52;;;;;;;5.18;3.47;;;11.90;74.30;;;;;;5031627;27;20253;-86
2022/03/01 11:51:18;;;;;;;4.50;3.80;;;11.90;72.90;;;;;;5082750;27;20281;-88
2022/03/01 11:53:49;;;;;;;6.20;4.13;;;11.90;73.00;;;;;;5098702;27;20191;-89
2022/03/01 11:56:16;;;;;;;5.47;3.97;;;12.00;74.60;;;;;;5099316;28;20463;-90
2022/03/01 11:58:48;;;;;;;7.65;5.40;;;12.00;73.10;;;;;;5102387;28;20246;-87
2022/03/01 12:01:13;;;;;;;4.53;4.03;;;12.00;74.10;;;;;;5103963;27;20229;-90
2022/03/01 12:03:40;;;;;;;5.50;3.53;;;12.00;74.00;;;;;;5088462;28;20191;-89
2022/03/01 12:06:07;;;;;;;4.47;4.07;;;12.00;73.70;;;;;;5092065;28;20271;-90
2022/03/01 12:08:36;;;;;;;5.72;4.22;;;12.00;75.80;;;;;;5091225;28;20225;-90
2022/03/01 12:11:04;;;;;;;3.75;3.40;;;12.00;75.10;;;;;;5093254;28;20221;-90
2022/03/01 12:13:42;;;;;;;4.50;3.80;;;12.00;74.10;;;;;;5102470;28;20502;-88
2022/03/01 12:16:10;;;;;;;5.18;4.22;;;12.00;72.50;;;;;;5094041;28;20195;-90
2022/03/01 12:18:38;;;;;;;6.72;4.25;;;12.00;74.60;;;;;;5096024;28;20690;-90
2022/03/01 12:21:12;;;;;;;6.63;4.28;;;12.00;76.80;;;;;;5085803;28;20329;-90
2022/03/01 12:23:40;;;;;;;5.68;3.78;;;12.00;74.70;;;;;;5092587;28;20228;-86
2022/03/01 12:26:12;;;;;;;5.85;5.00;;;12.00;73.80;;;;;;5095114;27;20237;-86
2022/03/01 12:28:49;;;;;;;7.28;4.15;;;12.00;75.60;;;;;;5104069;27;20221;-86
2022/03/01 12:31:22;;;;;;;5.47;4.20;;;12.00;75.20;;;;;;5040316;27;20198;-86
2022/03/01 12:33:50;;;;;;;4.60;4.20;;;12.00;74.70;;;;;;5081237;27;20193;-87
2022/03/01 12:36:27;;;;;;;4.20;3.80;;;12.00;75.00;;;;;;5083309;28;20215;-85
2022/03/01 12:39:05;;;;;;;5.13;4.40;;;12.00;74.50;;;;;;5097176;27;20182;-88
2022/03/01 12:41:35;;;;;;;5.35;4.35;;;12.00;73.60;;;;;;5097717;28;20190;-89
2022/03/01 12:44:04;;;;;;;4.80;3.88;;;12.00;73.90;;;;;;5094085;28;20602;-88
2022/03/01 12:46:32;;;;;;;4.97;4.20;;;12.00;73.30;;;;;;5089464;28;20234;-87
2022/03/01 12:48:58;;;;;;;5.00;4.10;;;12.00;71.80;;;;;;5089446;28;20512;-92